This is the latest recevied weather packets stored in our database for station/object KB1YYC. If no packets are shown the sender has not sent any weather packets the latest 1 day(s).
| Time | Temp. | Humidity | Pressure | Rain* | Wind** | Luminosity | Snow |
|---|---|---|---|---|---|---|---|
| 1778006986 | 23.89° C | 48% | 1004.9 hPa | 0 mm | 0.89 m/s, 252° | 458 W/m² | - |
| 1778006683 | 23.89° C | 48% | 1004.9 hPa | 0 mm | 1.79 m/s, 264° | 152 W/m² | - |
| 1778006379 | 24.44° C | 48% | 1005 hPa | 0 mm | 2.24 m/s, 239° | 122 W/m² | - |
| 1778006077 | 24.44° C | 47% | 1004.9 hPa | 0 mm | 1.34 m/s, 236° | 616 W/m² | - |
| 1778005773 | 24.44° C | 47% | 1005.1 hPa | 0 mm | 2.24 m/s, 206° | 203 W/m² | - |
| 1778005470 | 26.11° C | 44% | 1005 hPa | 0 mm | 1.79 m/s, 223° | 157 W/m² | - |
| 1778005166 | 27.22° C | 41% | 1005.3 hPa | 0 mm | 1.79 m/s, 226° | 389 W/m² | - |
| 1778004864 | 28.33° C | 34% | 1005.3 hPa | 0 mm | 2.24 m/s, 233° | 369 W/m² | - |
| 1778004561 | 28.33° C | 35% | 1005 hPa | 0 mm | 1.34 m/s, 242° | 699 W/m² | - |
| 1778004257 | 28.33° C | 35% | 1005 hPa | 0 mm | 1.79 m/s, 242° | 619 W/m² | - |
| 1778003954 | 28.33° C | 35% | 1005.3 hPa | 0 mm | 1.34 m/s, 240° | 175 W/m² | - |
| 1778003650 | 28.89° C | 34% | 1005.4 hPa | 0 mm | 1.34 m/s, 280° | 705 W/m² | - |
| 1778003346 | 28.33° C | 36% | 1005.5 hPa | 0 mm | 2.68 m/s, 231° | 702 W/m² | - |
| 1778003044 | 28.33° C | 35% | 1005.3 hPa | 0 mm | 2.68 m/s, 259° | 678 W/m² | - |
| 1778002740 | 27.22° C | 37% | 1005.4 hPa | 0 mm | 1.34 m/s, 329° | 659 W/m² | - |
| 1778002437 | 27.22° C | 37% | 1005.4 hPa | 0 mm | 2.24 m/s, 254° | 705 W/m² | - |
| 1778002134 | 27.78° C | 36% | 1005.7 hPa | 0 mm | 3.58 m/s, 255° | 689 W/m² | - |
| 1778001832 | 27.78° C | 35% | 1005.6 hPa | 0 mm | 1.34 m/s, 266° | 643 W/m² | - |
| 1778001531 | 28.33° C | 35% | 1005.7 hPa | 0 mm | 1.34 m/s, 300° | 652 W/m² | - |
| 1778001228 | 27.78° C | 36% | 1005.7 hPa | 0 mm | 0.89 m/s, 317° | 664 W/m² | - |
| 1778000924 | 27.22° C | 37% | 1005.9 hPa | 0 mm | 1.34 m/s, 326° | 694 W/m² | - |
| 1778000622 | 27.78° C | 37% | 1006 hPa | 0 mm | 1.79 m/s, 229° | 706 W/m² | - |
| 1778000317 | 27.78° C | 37% | 1006.1 hPa | 0 mm | 1.79 m/s, 241° | 691 W/m² | - |
| 1778000013 | 27.22° C | 38% | 1006.3 hPa | 0 mm | 1.79 m/s, 210° | 706 W/m² | - |
| 1777999709 | 26.67° C | 39% | 1006.3 hPa | 0 mm | 1.34 m/s, 317° | 660 W/m² | - |
* Rain latest hour (hover to see other rain measurements)
** Current wind speed in m/s (hover to see current wind gust speed)